createdAt,value
2017-08-10T00:00:16.684Z,53.89
2017-08-10T00:00:57.261Z,53.89
2017-08-10T00:01:37.871Z,53.89
2017-08-10T00:02:18.447Z,53.96
2017-08-10T00:02:59.030Z,53.39
2017-08-10T00:03:39.599Z,53.09
2017-08-10T00:04:20.169Z,53.77
2017-08-10T00:05:00.766Z,53.87
2017-08-10T00:05:41.377Z,53.96
2017-08-10T00:06:21.951Z,53.67
2017-08-10T00:07:02.525Z,54.06
2017-08-10T00:07:43.091Z,53.67
2017-08-10T00:08:23.662Z,53.48
2017-08-10T00:09:04.235Z,53.77
2017-08-10T00:09:44.802Z,54.06
2017-08-10T00:10:25.377Z,54.16
2017-08-10T00:11:05.964Z,53.96
2017-08-10T00:11:46.559Z,53.77
2017-08-10T00:12:27.132Z,54.06
2017-08-10T00:13:07.712Z,53.87
2017-08-10T00:13:48.276Z,54.06
2017-08-10T00:14:28.849Z,54.64
2017-08-10T00:15:09.432Z,54.64
2017-08-10T00:15:50.038Z,53.96
2017-08-10T00:16:30.606Z,54.25
2017-08-10T00:17:11.166Z,54.35
2017-08-10T00:17:51.743Z,54.54
2017-08-10T00:18:32.310Z,54.44
2017-08-10T00:19:12.885Z,54.93
2017-08-10T00:19:53.475Z,54.44
2017-08-10T00:20:34.043Z,55.02
2017-08-10T00:21:14.627Z,54.93
2017-08-10T00:21:55.216Z,54.93
2017-08-10T00:22:35.785Z,55.12
2017-08-10T00:23:16.376Z,55.22
2017-08-10T00:23:56.946Z,55.22
2017-08-10T00:24:37.539Z,54.64
2017-08-10T00:25:18.118Z,55.02
2017-08-10T00:25:58.697Z,55.02
2017-08-10T00:26:39.296Z,55.02
2017-08-10T00:27:26.568Z,54.93
2017-08-10T00:28:07.178Z,54.74
2017-08-10T00:28:47.767Z,54.93
2017-08-10T00:29:28.354Z,54.93
2017-08-10T00:30:08.938Z,55.22
2017-08-10T00:30:49.543Z,55.22
2017-08-10T00:31:30.120Z,54.83
2017-08-10T00:32:10.688Z,54.83
2017-08-10T00:32:51.254Z,54.83
2017-08-10T00:33:31.843Z,54.83
2017-08-10T00:34:12.403Z,55.12
2017-08-10T00:34:52.998Z,55.31
2017-08-10T00:35:33.599Z,54.83
2017-08-10T00:36:14.160Z,54.83
2017-08-10T00:36:54.739Z,54.93
2017-08-10T00:37:35.307Z,54.83
2017-08-10T00:38:15.901Z,55.51
2017-08-10T00:38:56.481Z,55.02
2017-08-10T00:39:37.050Z,55.22
2017-08-10T00:40:17.627Z,55.02
2017-08-10T00:40:58.225Z,54.64
2017-08-10T00:41:39.668Z,55.31
2017-08-10T00:42:20.235Z,55.12
2017-08-10T00:43:00.822Z,54.93
2017-08-10T00:43:41.415Z,54.93
2017-08-10T00:44:21.986Z,55.02
2017-08-10T00:45:02.577Z,55.22
2017-08-10T00:45:43.153Z,54.83
2017-08-10T00:46:23.726Z,54.74
2017-08-10T00:47:04.298Z,54.93
2017-08-10T00:47:44.866Z,55.12
2017-08-10T00:48:25.437Z,55.12
2017-08-10T00:49:06.026Z,55.51
2017-08-10T00:49:46.608Z,55.89
2017-08-10T00:50:27.191Z,55.79
2017-08-10T00:51:07.764Z,55.51
2017-08-10T00:51:48.336Z,54.93
2017-08-10T00:52:28.907Z,55.31
2017-08-10T00:53:09.511Z,55.31
2017-08-10T00:53:50.091Z,55.6
2017-08-10T00:54:30.676Z,55.51
2017-08-10T00:55:11.248Z,55.41
2017-08-10T00:55:51.821Z,55.7
2017-08-10T00:56:32.420Z,55.99
2017-08-10T00:57:12.992Z,56.18
2017-08-10T00:57:53.561Z,55.6
2017-08-10T00:58:34.172Z,55.89
2017-08-10T00:59:14.741Z,55.6
2017-08-10T00:59:55.333Z,55.7
2017-08-10T01:00:35.878Z,56.18
2017-08-10T01:01:16.483Z,56.18
2017-08-10T01:01:57.071Z,56.47
2017-08-10T01:02:37.648Z,56.47
2017-08-10T01:03:18.224Z,55.7
2017-08-10T01:03:58.841Z,55.6
2017-08-10T01:04:39.423Z,55.6
2017-08-10T01:05:20.000Z,55.41
2017-08-10T01:06:00.576Z,55.89
2017-08-10T01:06:41.143Z,55.89
2017-08-10T01:07:21.727Z,55.22
2017-08-10T01:08:02.291Z,55.51
2017-08-10T01:08:42.895Z,55.22
2017-08-10T01:09:23.483Z,55.41
2017-08-10T01:10:04.067Z,55.51
2017-08-10T01:10:44.675Z,55.6
2017-08-10T01:11:25.280Z,56.18
2017-08-10T01:12:05.859Z,56.09
2017-08-10T01:12:46.446Z,56.18
2017-08-10T01:13:27.030Z,56.47
2017-08-10T01:14:07.619Z,56.27
2017-08-10T01:14:48.202Z,56.18
2017-08-10T01:15:28.789Z,56.76
2017-08-10T01:16:09.393Z,57.43
2017-08-10T01:16:49.969Z,56.76
2017-08-10T01:17:30.542Z,56.47
2017-08-10T01:18:11.131Z,56.57
2017-08-10T01:18:51.740Z,56.95
2017-08-10T01:19:32.322Z,56.18
2017-08-10T01:20:12.909Z,56.47
2017-08-10T01:20:53.504Z,56.66
2017-08-10T01:21:34.090Z,56.85
2017-08-10T01:22:14.673Z,56.95
2017-08-10T01:22:55.288Z,56.76
2017-08-10T01:23:35.867Z,56.66
2017-08-10T01:24:16.448Z,56.76
2017-08-10T01:24:57.040Z,57.05
2017-08-10T01:25:37.603Z,56.76
2017-08-10T01:26:18.181Z,57.14
2017-08-10T01:26:58.760Z,57.53
2017-08-10T01:27:39.343Z,57.14
2017-08-10T01:28:19.918Z,56.95
2017-08-10T01:29:00.481Z,56.47
2017-08-10T01:29:41.067Z,57.82
2017-08-10T01:30:21.668Z,58.01
2017-08-10T01:31:02.295Z,58.11
2017-08-10T01:31:42.876Z,57.82
2017-08-10T01:32:23.457Z,58.11
2017-08-10T01:33:04.044Z,58.4
2017-08-10T01:33:44.621Z,58.4
2017-08-10T01:34:25.199Z,58.2
2017-08-10T01:35:05.765Z,58.97
2017-08-10T01:35:46.333Z,58.49
2017-08-10T01:36:26.914Z,58.69
2017-08-10T01:37:07.495Z,58.59
2017-08-10T01:37:48.050Z,58.97
2017-08-10T01:38:28.623Z,58.49
2017-08-10T01:39:09.201Z,58.69
2017-08-10T01:39:49.824Z,59.27
2017-08-10T01:40:30.401Z,59.84
2017-08-10T01:41:10.979Z,59.65
2017-08-10T01:41:51.554Z,59.84
2017-08-10T01:42:32.133Z,59.94
2017-08-10T01:43:12.712Z,60.52
2017-08-10T01:43:53.278Z,61
2017-08-10T01:44:33.866Z,62.06
2017-08-10T01:45:14.445Z,62.45
2017-08-10T01:45:55.017Z,63.28
2017-08-10T01:46:35.615Z,63.98
2017-08-10T01:47:16.189Z,64.34
2017-08-10T01:47:56.777Z,64.53
2017-08-10T01:48:37.368Z,65.01
2017-08-10T01:49:17.943Z,65.11
2017-08-10T01:49:58.519Z,65.59
2017-08-10T01:50:39.093Z,66.46
2017-08-10T01:51:19.659Z,66.75
2017-08-10T01:52:00.234Z,67.03
2017-08-10T01:52:40.808Z,67.71
2017-08-10T01:53:21.406Z,67.81
2017-08-10T01:54:01.993Z,67.9
2017-08-10T01:54:42.555Z,68.38
2017-08-10T01:55:23.145Z,68.96
2017-08-10T01:56:03.718Z,69.64
2017-08-10T01:56:44.296Z,69.79
2017-08-10T01:57:24.885Z,70.31
2017-08-10T01:58:05.456Z,70.18
2017-08-10T01:58:46.024Z,71.04
2017-08-10T01:59:26.587Z,70.76
2017-08-10T02:00:07.180Z,71.53
2017-08-10T02:00:47.756Z,71.91
2017-08-10T02:01:28.330Z,72.3
2017-08-10T02:02:08.903Z,72.68
2017-08-10T02:02:49.491Z,72.68
2017-08-10T02:03:30.061Z,73.16
2017-08-10T02:04:10.630Z,73.07
2017-08-10T02:04:51.199Z,74.13
2017-08-10T02:05:31.777Z,74.61
2017-08-10T02:06:12.357Z,74.41
2017-08-10T02:06:52.948Z,74.51
2017-08-10T02:07:33.533Z,74.8
2017-08-10T02:08:14.105Z,74.61
2017-08-10T02:08:54.674Z,75.05
2017-08-10T02:09:35.252Z,75.34
2017-08-10T02:10:15.820Z,75.63
2017-08-10T02:10:56.397Z,76.01
2017-08-10T02:11:36.967Z,76.4
2017-08-10T02:12:17.547Z,75.82
2017-08-10T02:12:58.135Z,76.4
2017-08-10T02:13:38.704Z,76.92
2017-08-10T02:14:19.280Z,76.98
2017-08-10T02:14:59.863Z,77.56
2017-08-10T02:15:40.456Z,76.98
2017-08-10T02:16:21.016Z,77.75
2017-08-10T02:17:01.591Z,77.46
2017-08-10T02:17:42.224Z,78.23
2017-08-10T02:18:24.301Z,78.03
2017-08-10T02:19:04.871Z,78.03
2017-08-10T02:19:45.440Z,78.9
2017-08-10T02:20:26.012Z,78.81
2017-08-10T02:21:06.598Z,79.1
2017-08-10T02:21:47.163Z,79.67
2017-08-10T02:22:27.737Z,79.48
2017-08-10T02:23:08.323Z,79.28
2017-08-10T02:23:48.872Z,79.67
2017-08-10T02:24:29.440Z,79.67
2017-08-10T02:25:10.016Z,80.06
2017-08-10T02:25:50.587Z,79.58
2017-08-10T02:26:31.180Z,80.44
2017-08-10T02:27:11.746Z,80.06
2017-08-10T02:27:52.317Z,79.96
2017-08-10T02:28:32.887Z,79.86
2017-08-10T02:29:13.458Z,80.15
2017-08-10T02:29:54.040Z,79.28
2017-08-10T02:30:34.622Z,79.35
2017-08-10T02:31:15.208Z,79.63
2017-08-10T02:31:55.805Z,80.11
2017-08-10T02:32:36.389Z,79.96
2017-08-10T02:33:16.976Z,79.96
2017-08-10T02:33:57.558Z,80.06
2017-08-10T02:34:38.129Z,79.73
2017-08-10T02:35:18.705Z,79.92
2017-08-10T02:35:59.284Z,79.82
2017-08-10T02:36:39.848Z,80.06
2017-08-10T02:37:20.420Z,80.15
2017-08-10T02:38:00.988Z,79.86
2017-08-10T02:38:41.599Z,80.15
2017-08-10T02:39:22.167Z,79.86
2017-08-10T02:40:02.735Z,79.92
2017-08-10T02:40:43.323Z,79.86
2017-08-10T02:41:23.884Z,79.73
2017-08-10T02:42:04.467Z,79.73
2017-08-10T02:42:45.042Z,79.92
2017-08-10T02:43:25.616Z,79.92
2017-08-10T02:44:06.193Z,79.73
2017-08-10T02:44:46.764Z,79.82
2017-08-10T02:45:27.341Z,80.3
2017-08-10T02:46:07.921Z,80.11
2017-08-10T02:46:48.472Z,79.92
2017-08-10T02:47:29.050Z,80.02
2017-08-10T02:48:09.635Z,80.02
2017-08-10T02:48:50.201Z,79.82
2017-08-10T02:49:30.778Z,80.11
2017-08-10T02:50:11.340Z,78.96
2017-08-10T02:50:51.912Z,78.96
2017-08-10T02:51:32.478Z,79.25
2017-08-10T02:52:13.046Z,80.02
2017-08-10T02:52:53.620Z,79.82
2017-08-10T02:53:34.190Z,80.21
2017-08-10T02:54:14.789Z,80.4
2017-08-10T02:54:55.368Z,80.11
2017-08-10T02:55:35.936Z,80.02
2017-08-10T02:56:16.506Z,80.11
2017-08-10T02:56:57.109Z,80.02
2017-08-10T02:57:37.655Z,79.82
2017-08-10T02:58:18.242Z,80.4
2017-08-10T02:58:58.812Z,80.02
2017-08-10T02:59:39.409Z,80.02
2017-08-10T03:00:19.977Z,79.92
2017-08-10T03:01:00.558Z,79.73
2017-08-10T03:01:41.136Z,80.11
2017-08-10T03:02:21.729Z,79.92
2017-08-10T03:03:02.293Z,80.02
2017-08-10T03:03:42.861Z,80.15
2017-08-10T03:04:23.436Z,79.44
2017-08-10T03:05:04.004Z,79.67
2017-08-10T03:05:44.573Z,79.58
2017-08-10T03:06:25.171Z,79.38
2017-08-10T03:07:05.729Z,79.1
2017-08-10T03:07:46.302Z,78.71
2017-08-10T03:08:26.862Z,78.61
2017-08-10T03:09:07.438Z,78.42
2017-08-10T03:09:48.009Z,78.13
2017-08-10T03:10:28.633Z,78.03
2017-08-10T03:11:09.280Z,78.61
2017-08-10T03:11:49.858Z,78.13
2017-08-10T03:12:30.440Z,77.94
2017-08-10T03:13:11.024Z,77.65
2017-08-10T03:13:51.601Z,77.26
2017-08-10T03:14:32.188Z,77.46
2017-08-10T03:15:12.764Z,77.65
2017-08-10T03:15:53.330Z,77.56
2017-08-10T03:16:33.919Z,77.46
2017-08-10T03:17:14.502Z,77.84
2017-08-10T03:17:55.077Z,77.65
2017-08-10T03:20:12.991Z,75.92
2017-08-10T03:20:53.576Z,76.59
2017-08-10T03:21:34.175Z,76.4
2017-08-10T03:22:14.752Z,76.21
2017-08-10T03:22:55.320Z,76.69
2017-08-10T03:23:35.919Z,76.59
2017-08-10T03:24:16.485Z,76.59
2017-08-10T03:24:57.086Z,76.5
2017-08-10T03:25:37.652Z,76.4
2017-08-10T03:26:18.218Z,76.01
2017-08-10T03:26:58.803Z,76.11
2017-08-10T03:27:39.371Z,75.54
2017-08-10T03:28:19.945Z,75.82
2017-08-10T03:29:00.513Z,76.01
2017-08-10T03:29:41.109Z,75.82
2017-08-10T03:30:21.689Z,75.73
2017-08-10T03:31:02.255Z,76.01
2017-08-10T03:31:42.818Z,75.92
2017-08-10T03:32:23.382Z,75.63
2017-08-10T03:33:03.951Z,75.63
2017-08-10T03:33:44.515Z,76.01
2017-08-10T03:34:25.080Z,75.54
2017-08-10T03:35:05.665Z,75.82
2017-08-10T03:35:46.226Z,76.59
2017-08-10T03:36:26.798Z,76.11
2017-08-10T03:37:07.363Z,75.92
2017-08-10T03:37:47.938Z,75.92
2017-08-10T03:38:28.519Z,76.11
2017-08-10T03:39:09.103Z,75.92
2017-08-10T03:39:49.692Z,76.11
2017-08-10T03:40:30.270Z,75.73
2017-08-10T03:41:10.833Z,75.92
2017-08-10T03:41:51.401Z,75.15
2017-08-10T03:42:31.997Z,75.05
2017-08-10T03:43:12.562Z,74.38
2017-08-10T03:43:53.130Z,74.76
2017-08-10T03:44:40.294Z,75.15
2017-08-10T03:45:20.858Z,75.69
2017-08-10T03:46:01.443Z,75.4
2017-08-10T03:46:42.021Z,75.69
2017-08-10T03:47:22.614Z,76.26
2017-08-10T03:48:03.204Z,76.36
2017-08-10T03:48:43.806Z,75.69
2017-08-10T03:49:24.391Z,76.26
2017-08-10T03:50:04.990Z,77.33
2017-08-10T03:50:45.595Z,76.84
2017-08-10T03:51:26.166Z,77.42
2017-08-10T03:52:06.737Z,77.13
2017-08-10T03:52:47.411Z,77.61
2017-08-10T03:53:28.018Z,77.81
2017-08-10T03:54:08.583Z,78.15
2017-08-10T03:54:49.175Z,77.96
2017-08-10T03:55:29.762Z,78.06
2017-08-10T03:56:10.378Z,78.83
2017-08-10T03:56:50.942Z,78.77
2017-08-10T03:57:31.521Z,78.83
2017-08-10T03:58:12.096Z,78.73
2017-08-10T03:58:52.683Z,78.92
2017-08-10T03:59:33.261Z,78.83
2017-08-10T04:00:13.825Z,78.73
2017-08-10T04:00:54.405Z,78.63
2017-08-10T04:01:34.969Z,78.63
2017-08-10T04:02:15.576Z,79.11
2017-08-10T04:02:56.128Z,78.92
2017-08-10T04:03:36.723Z,79.11
2017-08-10T04:04:17.298Z,79.5
2017-08-10T04:04:57.880Z,78.63
2017-08-10T04:05:38.474Z,78.06
2017-08-10T04:06:19.055Z,79.02
2017-08-10T04:06:59.654Z,78.63
2017-08-10T04:07:40.230Z,78.53
2017-08-10T04:08:20.816Z,79.11
2017-08-10T04:09:01.373Z,78.92
2017-08-10T04:09:41.940Z,79.5
2017-08-10T04:10:22.535Z,79.3
2017-08-10T04:11:03.108Z,79.79
2017-08-10T04:11:43.677Z,79.79
2017-08-10T04:12:24.254Z,80.07
2017-08-10T04:13:04.853Z,79.88
2017-08-10T04:13:45.425Z,80.17
2017-08-10T04:14:25.994Z,79.88
2017-08-10T04:15:06.570Z,80.17
2017-08-10T04:15:47.140Z,80.27
2017-08-10T04:16:27.726Z,80.17
2017-08-10T04:17:08.297Z,79.79
2017-08-10T04:17:48.869Z,80.07
2017-08-10T04:18:29.458Z,80.17
2017-08-10T04:19:10.054Z,80.17
2017-08-10T04:19:50.622Z,80.27
2017-08-10T04:20:31.190Z,80.46
2017-08-10T04:21:11.762Z,80.27
2017-08-10T04:21:52.337Z,79.88
2017-08-10T04:22:32.909Z,79.69
2017-08-10T04:23:13.475Z,79.79
2017-08-10T04:23:54.038Z,79.79
2017-08-10T04:24:34.600Z,79.79
2017-08-10T04:25:15.154Z,80.17
2017-08-10T04:25:55.731Z,79.79
2017-08-10T04:26:36.314Z,80.27
2017-08-10T04:27:16.881Z,79.6
2017-08-10T04:27:57.480Z,80.27
2017-08-10T04:28:38.035Z,80.84
2017-08-10T04:29:18.613Z,79.98
2017-08-10T04:29:59.225Z,79.98
2017-08-10T04:30:39.788Z,79.79
2017-08-10T04:31:20.405Z,79.88
2017-08-10T04:32:00.995Z,79.79
2017-08-10T04:32:41.569Z,80.27
2017-08-10T04:33:22.145Z,79.88
2017-08-10T04:34:02.716Z,80.17
2017-08-10T04:34:43.290Z,79.88
2017-08-10T04:35:23.851Z,79.69
2017-08-10T04:36:04.435Z,80.27
2017-08-10T04:36:45.004Z,80.17
2017-08-10T04:37:25.580Z,80.07
2017-08-10T04:38:06.142Z,79.98
2017-08-10T04:38:46.714Z,79.79
2017-08-10T04:39:27.331Z,79.69
2017-08-10T04:40:07.934Z,79.69
2017-08-10T04:40:48.509Z,80.07
2017-08-10T04:41:29.097Z,79.69
2017-08-10T04:42:09.634Z,79.79
2017-08-10T04:42:50.213Z,79.98
2017-08-10T04:43:30.777Z,79.69
2017-08-10T04:44:11.395Z,79.88
2017-08-10T04:44:51.988Z,79.98
2017-08-10T04:45:32.569Z,80.27
2017-08-10T04:46:13.142Z,79.69
2017-08-10T04:46:53.739Z,80.27
2017-08-10T04:47:34.320Z,80.36
2017-08-10T04:48:14.905Z,79.79
2017-08-10T04:48:55.484Z,79.69
2017-08-10T04:49:36.050Z,79.88
2017-08-10T04:50:16.621Z,79.88
2017-08-10T04:50:57.174Z,79.98
2017-08-10T04:51:37.740Z,79.88
2017-08-10T04:52:18.302Z,79.88
2017-08-10T04:52:58.884Z,79.98
2017-08-10T04:53:39.446Z,79.69
2017-08-10T04:54:20.011Z,79.69
2017-08-10T04:55:00.572Z,78.92
2017-08-10T04:55:41.124Z,79.02
2017-08-10T04:56:21.707Z,79.02
2017-08-10T04:57:02.265Z,79.5
2017-08-10T04:57:42.840Z,79.02
2017-08-10T04:58:23.422Z,78.92
2017-08-10T04:59:03.986Z,79.5
2017-08-10T04:59:44.566Z,79.88
2017-08-10T05:00:25.141Z,80.17
2017-08-10T05:01:05.746Z,80.27
2017-08-10T05:01:46.329Z,79.88
2017-08-10T05:02:26.907Z,79.79
2017-08-10T05:03:07.473Z,79.69
2017-08-10T05:03:48.071Z,79.98
2017-08-10T05:04:28.613Z,80.65
2017-08-10T05:05:09.189Z,80.17
2017-08-10T05:05:49.781Z,80.55
2017-08-10T05:06:30.370Z,81.13
2017-08-10T05:07:10.956Z,81.32
2017-08-10T05:07:51.526Z,80.27
2017-08-10T05:08:32.148Z,80.55
2017-08-10T05:09:12.724Z,79.98
2017-08-10T05:09:53.316Z,80.46
2017-08-10T05:10:33.914Z,80.07
2017-08-10T05:11:14.488Z,79.79
2017-08-10T05:11:55.095Z,79.88
2017-08-10T05:12:35.650Z,80.07
2017-08-10T05:13:16.217Z,79.98
2017-08-10T05:13:56.772Z,79.79
2017-08-10T05:14:37.346Z,79.79
2017-08-10T05:15:17.924Z,79.02
2017-08-10T05:15:58.488Z,78.83
2017-08-10T05:16:39.106Z,79.88
2017-08-10T05:17:19.658Z,79.69
2017-08-10T05:18:00.265Z,80.36
2017-08-10T05:18:40.845Z,79.88
2017-08-10T05:19:21.434Z,80.07
2017-08-10T05:20:02.010Z,79.98
2017-08-10T05:20:42.621Z,80.27
2017-08-10T05:21:23.232Z,79.5
2017-08-10T05:22:03.849Z,79.3
2017-08-10T05:22:44.415Z,79.11
2017-08-10T05:23:24.981Z,79.4
2017-08-10T05:24:05.566Z,79.21
2017-08-10T05:24:46.187Z,79.69
2017-08-10T05:25:26.772Z,78.83
2017-08-10T05:26:07.384Z,78.63
2017-08-10T05:26:47.994Z,78.06
2017-08-10T05:27:28.552Z,77.58
2017-08-10T05:28:09.134Z,76.61
2017-08-10T05:28:49.703Z,76.81
2017-08-10T05:29:30.284Z,76.71
2017-08-10T05:30:10.896Z,77.09
2017-08-10T05:30:51.419Z,77.58
2017-08-10T05:31:32.018Z,78.92
2017-08-10T05:32:12.601Z,79.3
2017-08-10T05:32:53.260Z,80.07
2017-08-10T05:33:34.773Z,80.36
2017-08-10T05:34:15.381Z,80.27
2017-08-10T05:34:56.123Z,79.98
2017-08-10T05:35:36.757Z,80.27
2017-08-10T05:36:17.315Z,80.36
2017-08-10T05:36:57.890Z,80.65
2017-08-10T05:37:38.453Z,80.46
2017-08-10T05:38:19.025Z,81.04
2017-08-10T05:38:59.656Z,80.94
2017-08-10T05:39:40.487Z,80.46
2017-08-10T05:40:21.238Z,80.07
2017-08-10T05:41:01.836Z,80.17
2017-08-10T05:41:42.392Z,80.17
2017-08-10T05:42:22.958Z,79.4
2017-08-10T05:43:03.534Z,78.92
2017-08-10T05:43:44.088Z,79.6
2017-08-10T05:44:24.726Z,79.88
2017-08-10T05:45:05.482Z,80.07
2017-08-10T05:45:46.100Z,80.17
2017-08-10T05:46:26.713Z,80.27
2017-08-10T05:47:07.376Z,80.94
2017-08-10T05:47:48.205Z,81.42
2017-08-10T05:48:29.030Z,81.71
2017-08-10T05:49:09.597Z,80.36
2017-08-10T05:49:50.309Z,79.88
2017-08-10T05:50:30.881Z,79.69
2017-08-10T05:51:11.464Z,80.07
2017-08-10T05:51:52.124Z,79.21
2017-08-10T05:52:32.735Z,78.53
2017-08-10T05:53:13.326Z,78.06
2017-08-10T05:53:53.929Z,77.67
2017-08-10T05:54:34.525Z,76.52
2017-08-10T05:55:15.146Z,75.17
2017-08-10T05:55:55.729Z,74.98
2017-08-10T05:56:36.301Z,74.79
2017-08-10T05:57:16.897Z,74.6
2017-08-10T05:57:57.494Z,74.79
2017-08-10T05:58:38.089Z,74.6
2017-08-10T05:59:18.660Z,74.92
2017-08-10T05:59:59.226Z,74.63
2017-08-10T06:00:39.800Z,74.54
2017-08-10T06:01:20.381Z,74.5
2017-08-10T06:02:00.958Z,75.4
2017-08-10T06:02:41.528Z,76.75
2017-08-10T06:03:22.104Z,77.13
2017-08-10T06:04:02.702Z,76.84
2017-08-10T06:04:43.294Z,76.65
2017-08-10T06:05:23.864Z,75.88
2017-08-10T06:06:04.429Z,75.59
2017-08-10T06:06:44.985Z,75.98
2017-08-10T06:07:25.560Z,76.56
2017-08-10T06:08:06.136Z,76.94
2017-08-10T06:08:46.697Z,77.04
2017-08-10T06:09:27.262Z,77.61
2017-08-10T06:10:07.838Z,78.09
2017-08-10T06:10:48.413Z,78.48
2017-08-10T06:11:29.053Z,78.67
2017-08-10T06:12:09.642Z,79.53
2017-08-10T06:12:50.208Z,78.19
2017-08-10T06:13:30.778Z,76.75
2017-08-10T06:14:11.355Z,76.65
2017-08-10T06:14:51.937Z,76.56
2017-08-10T06:15:32.514Z,76.75
2017-08-10T06:16:13.108Z,77.23
2017-08-10T06:16:53.678Z,77.04
2017-08-10T06:17:34.272Z,76.84
2017-08-10T06:18:15.168Z,75.69
2017-08-10T06:18:55.617Z,76.75
2017-08-10T06:19:36.193Z,75.4
2017-08-10T06:20:16.762Z,75.21
2017-08-10T06:20:57.341Z,75.49
2017-08-10T06:21:37.924Z,75.79
2017-08-10T06:22:18.536Z,76.84
2017-08-10T06:22:59.107Z,77.51
2017-08-10T06:23:39.672Z,78.09
2017-08-10T06:24:20.269Z,78.09
2017-08-10T06:25:00.842Z,78
2017-08-10T06:25:41.443Z,77.04
2017-08-10T06:26:22.022Z,76.36
2017-08-10T06:27:02.584Z,75.59
2017-08-10T06:27:43.165Z,75.31
2017-08-10T06:28:23.811Z,74.25
2017-08-10T06:29:04.457Z,74.15
2017-08-10T06:29:45.070Z,73.09
2017-08-10T06:30:25.702Z,73.03
2017-08-10T06:31:06.274Z,73.09
2017-08-10T06:31:46.888Z,73.57
2017-08-10T06:32:27.463Z,74.09
2017-08-10T06:33:08.044Z,75.63
2017-08-10T06:33:48.620Z,76.5
2017-08-10T06:34:29.197Z,77.26
2017-08-10T06:35:09.763Z,76.98
2017-08-10T06:35:50.352Z,76.4
2017-08-10T06:36:30.938Z,75.34
2017-08-10T06:37:11.518Z,76.01
2017-08-10T06:37:52.104Z,76.78
2017-08-10T06:38:32.721Z,76.4
2017-08-10T06:39:13.298Z,76.01
2017-08-10T06:39:53.881Z,75.92
2017-08-10T06:40:34.472Z,76.21
2017-08-10T06:41:15.053Z,76.5
2017-08-10T06:41:55.607Z,77.26
2017-08-10T06:42:36.176Z,77.65
2017-08-10T06:43:16.746Z,77.65
2017-08-10T06:43:57.334Z,76.69
2017-08-10T06:44:37.904Z,76.4
2017-08-10T06:45:18.489Z,75.34
2017-08-10T06:45:59.074Z,74.86
2017-08-10T06:46:39.659Z,74.86
2017-08-10T06:47:20.235Z,74.57
2017-08-10T06:48:00.800Z,74.57
2017-08-10T06:48:41.431Z,76.21
2017-08-10T06:49:22.021Z,76.98
2017-08-10T06:50:02.611Z,77.26
2017-08-10T06:50:43.188Z,77.65
2017-08-10T06:51:23.768Z,78.42
2017-08-10T06:52:04.325Z,79.1
2017-08-10T06:52:44.926Z,79.67
2017-08-10T06:53:25.511Z,79.48
2017-08-10T06:54:06.081Z,79.58
2017-08-10T06:54:46.670Z,79.38
2017-08-10T06:55:27.255Z,77.26
2017-08-10T06:56:07.825Z,76.01
2017-08-10T06:56:48.408Z,75.92
2017-08-10T06:57:28.995Z,75.54
2017-08-10T06:58:09.560Z,75.05
2017-08-10T06:58:50.155Z,74.67
2017-08-10T06:59:30.723Z,74.19
2017-08-10T07:00:11.309Z,73.8
2017-08-10T07:00:51.893Z,72.84
2017-08-10T07:01:32.488Z,72.07
2017-08-10T07:02:13.078Z,72.26
2017-08-10T07:02:53.639Z,72.84
2017-08-10T07:03:34.216Z,73.13
2017-08-10T07:04:14.786Z,73.03
2017-08-10T07:04:55.367Z,73.13
2017-08-10T07:05:36.035Z,72.36
2017-08-10T07:06:16.561Z,72.17
2017-08-10T07:06:57.128Z,70.92
2017-08-10T07:07:37.709Z,71.11
2017-08-10T07:08:18.309Z,71.2
2017-08-10T07:08:58.937Z,71.88
2017-08-10T07:09:39.496Z,72.17
2017-08-10T07:10:20.099Z,71.97
2017-08-10T07:11:00.681Z,72.36
2017-08-10T07:11:41.273Z,72.36
2017-08-10T07:12:21.875Z,71.97
2017-08-10T07:13:02.477Z,72.07
2017-08-10T07:13:43.068Z,72.36
2017-08-10T07:14:23.640Z,72.65
2017-08-10T07:15:04.220Z,72.26
2017-08-10T07:15:44.795Z,72.55
2017-08-10T07:16:25.374Z,71.97
2017-08-10T07:17:05.944Z,71.59
2017-08-10T07:17:46.536Z,71.97
2017-08-10T07:18:27.096Z,71.91
2017-08-10T07:19:07.710Z,72.36
2017-08-10T07:19:48.295Z,71.88
2017-08-10T07:20:28.874Z,72.39
2017-08-10T07:21:09.445Z,72.59
2017-08-10T07:21:50.018Z,72.3
2017-08-10T07:22:30.593Z,71.62
2017-08-10T07:23:11.171Z,71.24
2017-08-10T07:23:51.740Z,71.24
2017-08-10T07:24:32.324Z,71.24
2017-08-10T07:25:12.901Z,71.72
2017-08-10T07:25:53.473Z,72.49
2017-08-10T07:26:34.041Z,71.53
2017-08-10T07:27:14.617Z,71.72
2017-08-10T07:27:55.195Z,71.72
2017-08-10T07:28:35.823Z,72.68
2017-08-10T07:29:16.384Z,72.11
2017-08-10T07:29:56.957Z,71.53
2017-08-10T07:30:37.535Z,71.62
2017-08-10T07:31:18.109Z,71.91
2017-08-10T07:31:58.689Z,71.53
2017-08-10T07:32:39.286Z,71.34
2017-08-10T07:33:19.858Z,72.01
2017-08-10T07:34:00.438Z,72.39
2017-08-10T07:34:41.014Z,72.88
2017-08-10T07:35:21.602Z,72.39
2017-08-10T07:36:02.180Z,72.2
2017-08-10T07:36:42.732Z,72.11
2017-08-10T07:37:23.319Z,72.63
2017-08-10T07:38:03.892Z,72.68
2017-08-10T07:38:44.495Z,72.72
2017-08-10T07:39:25.071Z,72.24
2017-08-10T07:40:05.642Z,71.66
2017-08-10T07:40:46.217Z,70.89
2017-08-10T07:41:26.777Z,70.79
2017-08-10T07:42:07.344Z,71.66
2017-08-10T07:42:47.919Z,71.47
2017-08-10T07:43:28.505Z,71.66
2017-08-10T07:44:09.068Z,71.95
2017-08-10T07:44:49.668Z,71.76
2017-08-10T07:45:30.289Z,71.95
2017-08-10T07:46:10.872Z,71.47
2017-08-10T07:46:51.501Z,70.41
2017-08-10T07:47:32.054Z,70.79
2017-08-10T07:48:12.629Z,71.28
2017-08-10T07:48:53.205Z,70.79
2017-08-10T07:49:33.780Z,71.47
2017-08-10T07:50:14.352Z,70.89
2017-08-10T07:50:54.936Z,70.41
2017-08-10T07:51:35.570Z,70.5
2017-08-10T07:52:16.140Z,70.98
2017-08-10T07:52:56.758Z,70.41
2017-08-10T07:53:37.314Z,70.79
2017-08-10T07:54:17.910Z,71.18
2017-08-10T07:54:58.484Z,70.98
2017-08-10T07:55:39.067Z,70.7
2017-08-10T07:56:19.668Z,70.7
2017-08-10T07:57:00.231Z,70.79
2017-08-10T07:57:40.818Z,70.89
2017-08-10T07:58:21.370Z,70.7
2017-08-10T07:59:01.972Z,70.21
2017-08-10T07:59:42.635Z,70.31
2017-08-10T08:00:23.151Z,69.25
2017-08-10T08:01:03.716Z,68.87
2017-08-10T08:01:44.292Z,68.96
2017-08-10T08:02:24.895Z,69.35
2017-08-10T08:03:05.512Z,69.67
2017-08-10T08:03:46.099Z,69.54
2017-08-10T08:04:26.679Z,68.38
2017-08-10T08:05:07.288Z,68.29
2017-08-10T08:05:47.892Z,68.96
2017-08-10T08:06:28.477Z,69.64
2017-08-10T08:07:09.069Z,68.58
2017-08-10T08:07:49.650Z,68.9
2017-08-10T08:08:30.234Z,69.25
2017-08-10T08:09:10.823Z,69.45
2017-08-10T08:09:51.400Z,70.02
2017-08-10T08:10:32.009Z,69.15
2017-08-10T08:11:12.557Z,69.25
2017-08-10T08:11:53.135Z,69.54
2017-08-10T08:12:33.701Z,70.31
2017-08-10T08:13:14.309Z,69.67
2017-08-10T08:13:54.991Z,70.12
2017-08-10T08:14:35.605Z,69.67
2017-08-10T08:15:16.194Z,70.25
2017-08-10T08:15:56.754Z,69.57
2017-08-10T08:16:37.362Z,70.35
2017-08-10T08:17:17.939Z,70.06
2017-08-10T08:17:58.505Z,69.83
2017-08-10T08:18:39.076Z,69.38
2017-08-10T08:19:19.681Z,69.35
2017-08-10T08:20:00.262Z,69.19
2017-08-10T08:20:40.846Z,69.29
2017-08-10T08:21:21.424Z,69.48
2017-08-10T08:22:01.992Z,69.38
2017-08-10T08:22:42.561Z,68.8
2017-08-10T08:23:23.150Z,68.99
2017-08-10T08:24:03.733Z,68.04
2017-08-10T08:24:44.331Z,68.04
2017-08-10T08:25:24.919Z,67.94
2017-08-10T08:26:05.494Z,68
2017-08-10T08:26:46.074Z,68.9
2017-08-10T08:27:26.642Z,68.71
2017-08-10T08:28:07.237Z,68.42
2017-08-10T08:28:47.814Z,68.52
2017-08-10T08:29:28.416Z,68.29
2017-08-10T08:30:09.040Z,68.8
2017-08-10T08:30:49.621Z,68.52
2017-08-10T08:31:30.213Z,68.61
2017-08-10T08:32:10.793Z,69.19
2017-08-10T08:32:51.394Z,68.71
2017-08-10T08:33:31.976Z,68.71
2017-08-10T08:34:12.587Z,67.94
2017-08-10T08:34:53.173Z,67.84
2017-08-10T08:35:33.749Z,68.13
2017-08-10T08:36:14.320Z,67.84
2017-08-10T08:36:54.894Z,68.42
2017-08-10T08:37:35.467Z,68.52
2017-08-10T08:38:16.034Z,68.42
2017-08-10T08:38:56.605Z,68.52
2017-08-10T08:39:37.200Z,68.61
2017-08-10T08:40:17.782Z,68.42
2017-08-10T08:40:58.357Z,68.61
2017-08-10T08:41:38.948Z,67.55
2017-08-10T08:42:19.542Z,66.97
2017-08-10T08:43:00.123Z,67.07
2017-08-10T08:43:40.696Z,67.07
2017-08-10T08:44:21.269Z,66.69
2017-08-10T08:45:01.874Z,66.59
2017-08-10T08:45:42.471Z,66.97